Time;durP1;ratioP1;P1;durP2;ratioP2;P2;SDS_P1;SDS_P2;PMS_P1;PMS_P2;Temp;Humidity;BMP_temperature;BMP_pressure;BME280_temperature;BME280_humidity;BME280_pressure;Samples;Min_cycle;Max_cycle;Signal;HPM_P1;HPM_P2
2021/09/01 00:01:39;;;;;;;12.95;6.38;;;10.90;99.90;;;;;;5081290;28;20385;-74
2021/09/01 00:04:06;;;;;;;8.40;6.88;;;10.90;99.90;;;;;;5095582;28;20048;-75
2021/09/01 00:06:32;;;;;;;10.35;7.32;;;10.90;99.90;;;;;;5095769;28;20048;-75
2021/09/01 00:08:59;;;;;;;8.55;6.28;;;10.80;99.90;;;;;;5094739;28;20109;-76
2021/09/01 00:11:26;;;;;;;10.25;6.20;;;10.80;99.90;;;;;;5094723;28;20097;-75
2021/09/01 00:13:52;;;;;;;10.85;6.85;;;10.90;99.90;;;;;;5095953;28;20150;-75
2021/09/01 00:16:30;;;;;;;9.90;6.95;;;10.90;99.90;;;;;;5094894;28;20098;-76
2021/09/01 00:19:00;;;;;;;12.05;5.85;;;10.80;99.90;;;;;;5083735;28;20045;-75
2021/09/01 00:21:27;;;;;;;10.00;6.15;;;10.80;99.90;;;;;;5083101;28;20101;-75
2021/09/01 00:23:54;;;;;;;10.20;7.32;;;10.80;99.90;;;;;;5094937;28;20048;-76
2021/09/01 00:26:20;;;;;;;9.95;6.80;;;10.80;99.90;;;;;;5094294;28;20051;-75
2021/09/01 00:28:48;;;;;;;11.60;7.18;;;10.80;99.90;;;;;;5094699;28;20048;-75
2021/09/01 00:31:15;;;;;;;8.30;6.72;;;10.80;99.90;;;;;;5075785;28;20137;-72
2021/09/01 00:33:43;;;;;;;15.73;7.57;;;10.80;99.90;;;;;;5095280;28;20105;-73
2021/09/01 00:36:10;;;;;;;9.70;6.18;;;10.70;99.90;;;;;;5094830;28;20550;-73
2021/09/01 00:38:36;;;;;;;11.55;5.90;;;10.70;99.90;;;;;;5094169;28;20504;-74
2021/09/01 00:41:03;;;;;;;11.05;6.50;;;10.70;99.90;;;;;;5095008;28;20088;-74
2021/09/01 00:43:30;;;;;;;7.72;5.93;;;10.60;99.90;;;;;;5094589;28;20044;-76
2021/09/01 00:45:57;;;;;;;10.13;5.90;;;10.70;99.90;;;;;;5094013;28;20040;-75
2021/09/01 00:48:24;;;;;;;10.77;6.63;;;10.60;99.90;;;;;;5094533;28;20052;-75
2021/09/01 00:50:54;;;;;;;10.50;7.47;;;10.70;99.90;;;;;;5094794;28;20492;-75
2021/09/01 00:53:22;;;;;;;8.95;5.88;;;10.60;99.90;;;;;;5094531;28;20393;-76
2021/09/01 00:55:50;;;;;;;10.38;6.95;;;10.60;99.90;;;;;;5081888;28;20048;-75
2021/09/01 00:58:17;;;;;;;13.57;6.88;;;10.60;99.90;;;;;;5079956;28;20463;-76
2021/09/01 01:00:58;;;;;;;9.95;6.22;;;10.50;99.90;;;;;;5074153;28;20075;-75
2021/09/01 01:03:25;;;;;;;10.18;6.63;;;10.60;99.90;;;;;;5092392;28;20051;-75
2021/09/01 01:05:55;;;;;;;10.65;6.70;;;10.50;99.90;;;;;;5093793;28;20089;-77
2021/09/01 01:08:21;;;;;;;8.02;6.10;;;10.50;99.90;;;;;;5092978;28;20051;-75
2021/09/01 01:10:48;;;;;;;8.85;5.90;;;10.50;99.90;;;;;;5093454;28;20171;-74
2021/09/01 01:13:16;;;;;;;9.43;6.30;;;10.50;99.90;;;;;;5094150;28;20048;-73
2021/09/01 01:15:43;;;;;;;9.52;6.90;;;10.50;99.90;;;;;;5094581;28;20126;-73
2021/09/01 01:18:11;;;;;;;10.27;6.72;;;10.40;99.90;;;;;;5093732;28;20044;-73
2021/09/01 01:20:38;;;;;;;13.77;8.23;;;10.40;99.90;;;;;;5093322;28;20056;-74
2021/09/01 01:23:07;;;;;;;12.90;7.75;;;10.40;99.90;;;;;;5094237;28;20044;-74
2021/09/01 01:25:36;;;;;;;12.13;7.35;;;10.40;99.90;;;;;;5093211;28;20044;-76
2021/09/01 01:28:03;;;;;;;11.05;6.90;;;10.50;99.90;;;;;;5092997;28;20044;-76
2021/09/01 01:30:30;;;;;;;10.38;7.70;;;10.50;99.90;;;;;;5092531;28;20044;-75
2021/09/01 01:32:57;;;;;;;10.75;7.13;;;10.50;99.90;;;;;;5093805;28;20051;-74
2021/09/01 01:35:25;;;;;;;10.85;7.22;;;10.40;99.90;;;;;;5074317;28;20493;-75
2021/09/01 01:37:52;;;;;;;11.75;7.68;;;10.50;99.90;;;;;;5088241;28;20070;-75
2021/09/01 01:40:19;;;;;;;10.55;7.63;;;10.40;99.90;;;;;;5089588;28;20093;-73
2021/09/01 01:42:47;;;;;;;10.23;7.20;;;10.50;99.90;;;;;;5093880;28;20097;-73
2021/09/01 01:45:14;;;;;;;11.35;7.43;;;10.50;99.90;;;;;;5093724;28;20044;-74
2021/09/01 01:47:40;;;;;;;10.40;6.82;;;10.50;99.90;;;;;;5093512;28;20503;-73
2021/09/01 01:50:08;;;;;;;13.52;7.18;;;10.50;99.90;;;;;;5092556;28;20201;-74
2021/09/01 01:52:35;;;;;;;13.48;8.05;;;10.50;99.90;;;;;;5093800;28;20044;-74
2021/09/01 01:55:02;;;;;;;12.60;7.07;;;10.60;99.90;;;;;;5093270;28;20044;-76
2021/09/01 01:57:28;;;;;;;10.57;7.45;;;10.70;99.90;;;;;;5092435;28;20054;-76
2021/09/01 01:59:56;;;;;;;10.55;7.78;;;10.70;99.90;;;;;;5082522;28;20118;-76
2021/09/01 02:02:28;;;;;;;12.07;7.75;;;10.70;99.90;;;;;;5091642;28;20040;-75
2021/09/01 02:04:55;;;;;;;15.00;6.88;;;10.70;99.90;;;;;;5074187;28;20066;-76
2021/09/01 02:07:22;;;;;;;10.63;7.32;;;10.60;99.90;;;;;;5091160;28;20048;-74
2021/09/01 02:09:48;;;;;;;8.20;6.57;;;10.60;99.90;;;;;;5092333;28;20097;-72
2021/09/01 02:12:15;;;;;;;11.35;7.93;;;10.60;99.90;;;;;;5082244;28;20105;-73
2021/09/01 02:14:41;;;;;;;8.52;6.00;;;10.60;99.90;;;;;;5092798;28;20044;-72
2021/09/01 02:17:09;;;;;;;10.45;8.15;;;10.50;99.90;;;;;;5092978;28;20070;-72
2021/09/01 02:19:36;;;;;;;9.77;6.93;;;10.50;99.90;;;;;;5092672;28;20447;-75
2021/09/01 02:22:04;;;;;;;13.13;7.25;;;10.50;99.90;;;;;;5093424;28;20040;-72
2021/09/01 02:24:30;;;;;;;12.55;7.07;;;10.50;99.90;;;;;;5093350;28;20048;-73
2021/09/01 02:26:57;;;;;;;12.80;7.65;;;10.50;99.90;;;;;;5092718;28;20089;-73
2021/09/01 02:29:24;;;;;;;11.50;7.55;;;10.50;99.90;;;;;;5092162;28;20048;-73
2021/09/01 02:31:50;;;;;;;17.08;7.53;;;10.50;99.90;;;;;;5092969;28;20040;-73
2021/09/01 02:34:18;;;;;;;11.88;7.45;;;10.50;99.90;;;;;;5092878;28;20089;-73
2021/09/01 02:36:45;;;;;;;14.82;9.57;;;10.60;99.90;;;;;;5092893;28;20044;-75
2021/09/01 02:39:11;;;;;;;17.00;8.88;;;10.70;99.90;;;;;;5092044;28;20063;-76
2021/09/01 02:41:38;;;;;;;11.82;7.43;;;10.70;99.90;;;;;;5092850;28;20451;-75
2021/09/01 02:44:05;;;;;;;14.82;7.72;;;10.70;99.90;;;;;;5092916;28;20040;-75
2021/09/01 02:46:31;;;;;;;14.63;9.48;;;10.70;99.90;;;;;;5092355;28;20043;-75
2021/09/01 02:48:59;;;;;;;12.98;9.15;;;10.60;99.90;;;;;;5091080;28;20044;-73
2021/09/01 02:51:27;;;;;;;13.63;7.95;;;10.60;99.90;;;;;;5091863;28;20055;-73
2021/09/01 02:53:53;;;;;;;12.55;7.90;;;10.70;99.90;;;;;;5081175;28;20110;-73
2021/09/01 02:56:20;;;;;;;11.35;7.18;;;10.70;99.90;;;;;;5073751;28;20045;-73
2021/09/01 02:58:46;;;;;;;11.10;7.28;;;10.70;99.90;;;;;;5091951;28;20093;-74
2021/09/01 03:01:13;;;;;;;12.43;9.10;;;10.80;99.90;;;;;;5091978;28;20699;-74
2021/09/01 03:03:40;;;;;;;16.52;8.95;;;10.80;99.90;;;;;;5092011;28;20105;-74
2021/09/01 03:06:06;;;;;;;13.77;9.05;;;10.80;99.90;;;;;;5091701;28;20044;-73
2021/09/01 03:08:34;;;;;;;15.85;8.93;;;10.80;99.90;;;;;;5091825;28;20529;-73
2021/09/01 03:11:01;;;;;;;19.45;9.18;;;10.80;99.90;;;;;;5094085;28;20074;-73
2021/09/01 03:13:27;;;;;;;13.50;7.07;;;10.90;99.90;;;;;;5096478;28;20044;-72
2021/09/01 03:15:54;;;;;;;15.38;8.77;;;10.90;99.90;;;;;;5096471;28;20048;-73
2021/09/01 03:18:21;;;;;;;12.38;8.02;;;10.90;99.90;;;;;;5095420;28;20040;-73
2021/09/01 03:20:47;;;;;;;15.20;8.25;;;10.90;99.90;;;;;;5094643;28;20086;-75
2021/09/01 03:23:14;;;;;;;11.13;7.93;;;10.80;99.90;;;;;;5095981;28;20097;-74
2021/09/01 03:25:42;;;;;;;12.88;7.32;;;10.80;99.90;;;;;;5096328;28;20105;-75
2021/09/01 03:28:09;;;;;;;11.40;7.18;;;10.80;99.90;;;;;;5080989;28;20044;-73
2021/09/01 03:30:35;;;;;;;10.93;8.27;;;10.80;99.90;;;;;;5085052;28;20055;-74
2021/09/01 03:33:02;;;;;;;11.75;7.75;;;10.70;99.90;;;;;;5096102;28;20093;-75
2021/09/01 03:35:29;;;;;;;11.23;7.50;;;10.70;99.90;;;;;;5086648;28;20040;-72
2021/09/01 03:37:56;;;;;;;10.68;7.47;;;10.80;99.90;;;;;;5095801;28;20040;-76
2021/09/01 03:40:23;;;;;;;11.48;8.13;;;10.70;99.90;;;;;;5095116;28;20052;-73
2021/09/01 03:42:51;;;;;;;12.27;7.88;;;10.70;99.90;;;;;;5086478;28;20041;-75
2021/09/01 03:45:18;;;;;;;10.15;7.15;;;10.70;99.90;;;;;;5075059;28;20045;-74
2021/09/01 03:47:44;;;;;;;12.75;8.73;;;10.70;99.90;;;;;;5088241;28;20055;-75
2021/09/01 03:50:13;;;;;;;16.33;10.23;;;10.70;99.90;;;;;;5094750;28;20043;-72
2021/09/01 03:52:40;;;;;;;13.45;8.95;;;10.70;99.90;;;;;;5089460;28;20048;-73
2021/09/01 03:55:09;;;;;;;14.05;8.93;;;10.70;99.90;;;;;;5087817;28;20044;-74
2021/09/01 03:57:36;;;;;;;13.00;8.55;;;10.70;99.90;;;;;;5094180;28;20044;-72
2021/09/01 04:00:04;;;;;;;17.05;9.00;;;10.80;99.90;;;;;;5095105;28;20044;-75
2021/09/01 04:02:31;;;;;;;15.60;8.45;;;10.70;99.90;;;;;;5095368;28;20048;-73
2021/09/01 04:04:57;;;;;;;20.23;12.38;;;10.70;99.90;;;;;;5096644;28;20044;-72
2021/09/01 04:07:24;;;;;;;19.92;11.15;;;10.80;99.90;;;;;;5095048;28;20055;-72
2021/09/01 04:09:51;;;;;;;36.25;18.42;;;10.80;99.90;;;;;;5094596;28;20052;-74
2021/09/01 04:12:18;;;;;;;36.72;19.25;;;10.80;99.90;;;;;;5095076;28;20048;-74
2021/09/01 04:14:44;;;;;;;20.42;13.65;;;10.80;99.90;;;;;;5095912;28;20052;-72
2021/09/01 04:17:12;;;;;;;13.90;9.25;;;10.90;99.90;;;;;;5092644;28;20102;-72
2021/09/01 04:19:39;;;;;;;22.85;13.43;;;10.90;99.90;;;;;;5093566;28;20089;-73
2021/09/01 04:22:06;;;;;;;17.00;10.50;;;10.90;99.90;;;;;;5094416;28;20282;-74
2021/09/01 04:24:32;;;;;;;19.65;12.45;;;11.00;99.90;;;;;;5094000;28;20044;-71
2021/09/01 04:26:59;;;;;;;21.45;13.13;;;11.00;99.90;;;;;;5093947;28;20040;-72
2021/09/01 04:29:26;;;;;;;18.90;11.30;;;10.90;99.90;;;;;;5091332;28;20093;-71
2021/09/01 04:31:52;;;;;;;21.52;12.07;;;11.00;99.90;;;;;;5088288;28;20102;-73
2021/09/01 04:34:20;;;;;;;14.70;11.27;;;11.10;99.90;;;;;;5089819;28;20485;-77
2021/09/01 04:36:47;;;;;;;16.30;10.68;;;11.10;99.90;;;;;;5095438;28;20056;-76
2021/09/01 04:39:14;;;;;;;29.65;15.80;;;11.10;99.90;;;;;;5093053;28;20097;-73
2021/09/01 04:41:40;;;;;;;25.40;14.23;;;11.20;99.90;;;;;;5094167;28;20044;-73
2021/09/01 04:44:09;;;;;;;16.10;10.18;;;11.20;99.90;;;;;;5095076;28;20044;-74
2021/09/01 04:46:36;;;;;;;16.58;9.98;;;11.30;99.90;;;;;;5092886;28;20059;-72
2021/09/01 04:49:02;;;;;;;19.20;11.63;;;11.40;99.90;;;;;;5093662;28;20069;-72
2021/09/01 04:51:30;;;;;;;18.52;10.52;;;11.40;99.90;;;;;;5093889;28;20044;-73
2021/09/01 04:53:57;;;;;;;21.17;12.15;;;11.50;99.90;;;;;;5094020;28;20044;-74
2021/09/01 04:56:23;;;;;;;19.02;11.18;;;11.60;99.90;;;;;;5088035;28;20045;-75
2021/09/01 04:58:50;;;;;;;25.52;14.90;;;11.60;99.90;;;;;;5094325;28;20454;-71
2021/09/01 05:01:17;;;;;;;24.33;13.18;;;11.70;99.90;;;;;;5093792;28;20043;-70
2021/09/01 05:03:46;;;;;;;31.50;18.42;;;11.80;99.90;;;;;;5093972;28;20044;-75
2021/09/01 05:06:13;;;;;;;21.15;12.65;;;11.80;99.90;;;;;;5095472;28;20048;-74
2021/09/01 05:08:41;;;;;;;41.85;23.40;;;11.80;99.90;;;;;;5075044;28;20049;-73
2021/09/01 05:11:08;;;;;;;22.67;13.43;;;11.90;99.90;;;;;;5093313;28;20040;-72
2021/09/01 05:13:40;;;;;;;46.92;26.42;;;12.00;99.90;;;;;;5094686;28;20784;-76
2021/09/01 05:16:07;;;;;;;17.92;11.50;;;12.10;99.90;;;;;;5095415;28;20052;-78
2021/09/01 05:18:33;;;;;;;38.45;22.13;;;12.30;99.90;;;;;;5093429;28;20048;-77
2021/09/01 05:21:01;;;;;;;18.80;12.43;;;12.40;99.90;;;;;;5096048;28;20044;-77
2021/09/01 05:23:32;;;;;;;37.88;20.65;;;12.50;99.90;;;;;;5093162;28;20048;-72
2021/09/01 05:26:01;;;;;;;45.67;26.33;;;12.50;99.90;;;;;;5094203;28;20407;-73
2021/09/01 05:28:30;;;;;;;25.10;14.07;;;12.60;99.90;;;;;;5089122;28;20343;-74
2021/09/01 05:30:59;;;;;;;18.30;11.35;;;12.70;99.90;;;;;;5093956;28;20051;-75
2021/09/01 05:33:29;;;;;;;14.18;10.43;;;12.70;99.90;;;;;;5093081;28;20113;-73
2021/09/01 05:35:56;;;;;;;26.08;14.40;;;12.70;99.90;;;;;;5093938;28;20128;-73
2021/09/01 05:38:26;;;;;;;24.08;13.38;;;12.80;99.90;;;;;;5089310;28;20489;-75
2021/09/01 05:40:54;;;;;;;17.13;9.27;;;12.90;99.90;;;;;;5073782;28;20562;-73
2021/09/01 05:43:22;;;;;;;16.70;11.82;;;12.90;99.90;;;;;;5093281;28;20044;-73
2021/09/01 05:45:50;;;;;;;16.90;11.55;;;12.90;99.90;;;;;;5084526;28;20048;-72
2021/09/01 05:48:20;;;;;;;12.98;9.88;;;13.00;99.90;;;;;;5072852;28;20045;-73
2021/09/01 05:50:51;;;;;;;14.38;9.50;;;13.20;99.90;;;;;;5072991;28;20137;-72
2021/09/01 05:53:18;;;;;;;;;;;13.40;99.90;;;;;;5073035;28;20052;-73
2021/09/01 05:55:48;;;;;;;17.73;10.18;;;13.70;99.90;;;;;;5073081;28;19925;-74
2021/09/01 05:58:17;;;;;;;28.90;13.93;;;14.10;99.90;;;;;;5076152;28;20386;-74
2021/09/01 06:00:52;;;;;;;22.02;12.82;;;14.40;99.90;;;;;;5092699;28;20127;-73
2021/09/01 06:03:23;;;;;;;23.67;14.75;;;14.60;99.90;;;;;;5092870;28;20439;-72
2021/09/01 06:05:54;;;;;;;10.77;7.75;;;14.90;99.90;;;;;;5093269;28;20052;-75
2021/09/01 06:08:23;;;;;;;9.95;6.53;;;15.20;99.90;;;;;;5084656;28;20049;-75
2021/09/01 06:10:51;;;;;;;13.85;7.97;;;15.60;99.90;;;;;;5072581;28;20052;-75
2021/09/01 06:13:18;;;;;;;11.50;7.60;;;15.90;99.90;;;;;;5077764;28;20484;-74
2021/09/01 06:15:46;;;;;;;8.40;5.78;;;16.30;99.90;;;;;;5072570;28;20068;-74
2021/09/01 06:18:13;;;;;;;11.10;5.97;;;16.40;99.90;;;;;;5093011;28;20052;-74
2021/09/01 06:20:41;;;;;;;10.27;5.45;;;16.60;99.90;;;;;;5092172;28;20101;-75
2021/09/01 06:23:08;;;;;;;8.02;5.00;;;17.00;99.90;;;;;;5091498;28;20042;-73
2021/09/01 06:25:36;;;;;;;10.15;6.60;;;17.30;99.90;;;;;;5092437;28;20052;-72
2021/09/01 06:28:03;;;;;;;8.88;6.43;;;17.60;99.90;;;;;;5074604;28;20057;-63
2021/09/01 06:30:30;;;;;;;8.73;6.65;;;17.80;99.90;;;;;;5090561;28;20395;-65
2021/09/01 06:32:58;;;;;;;7.88;5.80;;;18.00;99.90;;;;;;5092127;28;20051;-67
2021/09/01 06:35:25;;;;;;;9.90;6.03;;;18.40;99.90;;;;;;5092073;28;20044;-66
2021/09/01 06:37:51;;;;;;;21.85;14.82;;;18.40;99.90;;;;;;5091851;28;20044;-67
2021/09/01 06:40:19;;;;;;;12.40;8.52;;;18.40;99.90;;;;;;5091366;28;20040;-66
2021/09/01 06:42:46;;;;;;;9.20;5.93;;;18.60;99.90;;;;;;5091978;28;20056;-66
2021/09/01 06:45:13;;;;;;;9.45;5.57;;;18.70;99.90;;;;;;5091723;28;20484;-67
2021/09/01 06:47:41;;;;;;;6.75;5.07;;;18.80;99.90;;;;;;5091591;28;20044;-67
2021/09/01 06:50:12;;;;;;;11.15;6.90;;;19.30;99.90;;;;;;5091199;28;20044;-68
2021/09/01 06:52:40;;;;;;;10.07;6.55;;;19.40;99.90;;;;;;5091725;28;20074;-68
2021/09/01 06:55:07;;;;;;;13.02;8.25;;;19.70;99.90;;;;;;5091596;28;20044;-69
2021/09/01 06:57:34;;;;;;;14.20;7.20;;;19.90;99.90;;;;;;5074732;28;20048;-69
2021/09/01 07:00:01;;;;;;;7.82;6.15;;;20.10;99.90;;;;;;5070926;28;20136;-68
2021/09/01 07:02:28;;;;;;;11.23;6.20;;;19.70;99.90;;;;;;5086616;28;20093;-69
2021/09/01 07:04:54;;;;;;;8.77;6.00;;;19.70;99.90;;;;;;5089793;28;20044;-74
2021/09/01 07:07:22;;;;;;;5.40;4.50;;;19.60;99.90;;;;;;5091590;28;20040;-65
2021/09/01 07:09:49;;;;;;;10.40;5.72;;;19.80;99.90;;;;;;5091989;28;20090;-68
2021/09/01 07:12:15;;;;;;;7.85;5.90;;;19.70;99.90;;;;;;5091673;28;20052;-67
2021/09/01 07:14:42;;;;;;;5.90;4.55;;;20.00;99.90;;;;;;5091221;28;20545;-66
2021/09/01 07:17:09;;;;;;;8.35;5.47;;;20.40;99.90;;;;;;5091762;28;20088;-67
2021/09/01 07:19:35;;;;;;;7.13;4.15;;;20.40;99.90;;;;;;5091308;28;20047;-66
2021/09/01 07:22:02;;;;;;;7.10;4.75;;;20.40;99.90;;;;;;5091162;28;20048;-66
2021/09/01 07:24:30;;;;;;;6.82;4.82;;;20.50;99.90;;;;;;5091781;28;20097;-66
2021/09/01 07:26:56;;;;;;;9.40;5.35;;;20.40;99.90;;;;;;5091258;28;20040;-68
2021/09/01 07:29:23;;;;;;;9.25;5.97;;;20.20;99.90;;;;;;5091068;28;20048;-68
2021/09/01 07:31:49;;;;;;;9.00;4.80;;;19.70;99.90;;;;;;5090756;28;20048;-69
2021/09/01 07:34:16;;;;;;;7.57;5.07;;;20.00;99.90;;;;;;5088613;28;20088;-67
2021/09/01 07:36:43;;;;;;;9.00;4.85;;;19.80;99.90;;;;;;5087248;28;20117;-66
2021/09/01 07:39:09;;;;;;;9.90;5.07;;;19.70;99.90;;;;;;5091069;28;20082;-66
2021/09/01 07:41:37;;;;;;;6.22;5.18;;;19.40;99.90;;;;;;5085434;28;20041;-72
2021/09/01 07:44:04;;;;;;;7.10;5.03;;;19.20;99.90;;;;;;5078175;28;20048;-74
2021/09/01 07:46:31;;;;;;;9.48;5.15;;;19.00;99.90;;;;;;5098462;28;20047;-72
2021/09/01 07:49:00;;;;;;;10.18;5.38;;;18.90;99.90;;;;;;5080011;28;20048;-73
2021/09/01 07:51:27;;;;;;;4.88;4.28;;;18.80;99.90;;;;;;5071148;28;20102;-70
2021/09/01 07:53:54;;;;;;;9.57;5.20;;;19.00;99.90;;;;;;5086141;28;20047;-68
2021/09/01 07:56:21;;;;;;;7.53;4.32;;;19.00;99.90;;;;;;5080139;28;20051;-71
2021/09/01 07:58:48;;;;;;;6.47;4.28;;;19.20;99.90;;;;;;5081763;28;20044;-73
2021/09/01 08:01:15;;;;;;;8.13;5.03;;;19.10;99.90;;;;;;5085221;28;20044;-72
2021/09/01 08:03:42;;;;;;;9.30;5.18;;;19.00;99.90;;;;;;5084524;28;20416;-71
2021/09/01 08:06:09;;;;;;;11.38;6.45;;;19.10;99.90;;;;;;5095678;28;20044;-70
2021/09/01 08:08:36;;;;;;;14.10;8.02;;;19.00;99.90;;;;;;5094450;28;20462;-71
2021/09/01 08:11:03;;;;;;;8.18;5.32;;;18.80;99.90;;;;;;5094897;28;20093;-71
2021/09/01 08:13:30;;;;;;;15.10;9.63;;;18.80;99.90;;;;;;5094121;28;20051;-70
2021/09/01 08:15:58;;;;;;;7.90;5.38;;;19.00;99.90;;;;;;5094685;28;20101;-71
2021/09/01 08:18:25;;;;;;;9.32;5.28;;;19.00;99.90;;;;;;5094522;28;20093;-69
2021/09/01 08:20:52;;;;;;;8.90;5.38;;;19.00;99.90;;;;;;5094404;28;20131;-69
2021/09/01 08:23:18;;;;;;;7.07;5.22;;;19.00;99.90;;;;;;5093350;28;20056;-70
2021/09/01 08:25:45;;;;;;;6.40;4.90;;;19.00;99.90;;;;;;5074260;28;20052;-73
2021/09/01 08:28:12;;;;;;;8.02;5.95;;;18.90;99.90;;;;;;5090433;28;20305;-74
2021/09/01 08:30:39;;;;;;;6.22;4.55;;;18.80;99.90;;;;;;5093968;28;20203;-72
2021/09/01 08:33:07;;;;;;;7.40;5.47;;;18.50;99.90;;;;;;5092574;28;20044;-72
2021/09/01 08:35:34;;;;;;;10.07;6.80;;;18.50;99.90;;;;;;5085176;28;20048;-68
2021/09/01 08:38:00;;;;;;;10.18;6.82;;;18.80;99.90;;;;;;5076751;28;20044;-69
2021/09/01 08:40:27;;;;;;;10.23;6.32;;;18.90;99.90;;;;;;5080718;28;20105;-70
2021/09/01 08:42:55;;;;;;;7.30;5.63;;;19.00;99.90;;;;;;5092395;28;20048;-71
2021/09/01 08:45:21;;;;;;;10.13;6.43;;;19.40;99.90;;;;;;5094505;28;20409;-73
2021/09/01 08:47:48;;;;;;;10.18;5.82;;;19.80;99.90;;;;;;5094258;28;20052;-82
2021/09/01 08:50:16;;;;;;;8.05;6.13;;;20.50;99.90;;;;;;5092877;28;20048;-73
2021/09/01 08:52:43;;;;;;;8.63;5.35;;;20.70;99.90;;;;;;5093962;28;20048;-69
2021/09/01 08:55:12;;;;;;;9.35;5.50;;;21.00;99.90;;;;;;5093503;28;20064;-70
2021/09/01 08:57:39;;;;;;;5.90;4.57;;;21.30;99.90;;;;;;5093480;28;20044;-71
2021/09/01 09:00:08;;;;;;;5.70;5.07;;;21.30;99.90;;;;;;5073259;28;20436;-69
2021/09/01 09:02:35;;;;;;;5.85;4.30;;;21.50;99.90;;;;;;5073629;28;20040;-72
2021/09/01 09:05:06;;;;;;;13.77;8.52;;;21.50;99.90;;;;;;5074204;28;20451;-73
2021/09/01 09:07:43;;;;;;;5.70;4.60;;;21.60;99.90;;;;;;5092239;28;20126;-71
2021/09/01 09:10:25;;;;;;;10.13;6.47;;;21.90;99.90;;;;;;5089374;28;20040;-69
2021/09/01 09:12:56;;;;;;;8.90;5.65;;;22.40;99.90;;;;;;5073098;28;20550;-70
2021/09/01 09:15:23;;;;;;;6.55;5.05;;;22.20;99.90;;;;;;5073836;28;20538;-73
2021/09/01 09:17:49;;;;;;;6.57;5.32;;;22.60;99.90;;;;;;5086305;28;20102;-73
2021/09/01 09:20:16;;;;;;;6.13;4.85;;;23.50;99.90;;;;;;5079082;28;20040;-72
2021/09/01 09:22:44;;;;;;;9.00;4.57;;;24.00;99.90;;;;;;5092877;28;20044;-74
2021/09/01 09:25:13;;;;;;;6.57;3.85;;;23.80;99.90;;;;;;5092961;28;20044;-70
2021/09/01 09:27:43;;;;;;;6.22;4.97;;;23.90;99.90;;;;;;5092327;28;20046;-71
2021/09/01 09:30:36;;;;;;;10.27;6.88;;;23.50;99.90;;;;;;5092281;28;20043;-72
2021/09/01 09:33:06;;;;;;;6.57;4.88;;;22.90;99.90;;;;;;5081113;28;20032;-77
2021/09/01 09:35:53;;;;;;;10.85;7.25;;;22.40;99.90;;;;;;5077037;28;20059;-74
2021/09/01 09:38:30;;;;;;;9.10;6.85;;;22.20;99.90;;;;;;5073384;28;20036;-74
2021/09/01 09:40:57;;;;;;;6.15;4.93;;;22.30;99.90;;;;;;5073035;28;20114;-72
2021/09/01 09:43:27;;;;;;;5.60;4.60;;;23.00;99.90;;;;;;5078601;28;20479;-71
2021/09/01 09:46:03;;;;;;;6.10;4.68;;;23.60;99.90;;;;;;5078292;28;20390;-71
2021/09/01 09:48:32;;;;;;;8.18;5.22;;;23.50;99.90;;;;;;5083141;28;20051;-71
2021/09/01 09:51:00;;;;;;;8.30;5.15;;;23.40;99.90;;;;;;5084618;28;20090;-71
2021/09/01 09:53:38;;;;;;;6.80;5.45;;;23.10;99.90;;;;;;5092561;28;20488;-69
2021/09/01 09:56:06;;;;;;;11.38;4.72;;;23.00;99.90;;;;;;5081808;28;20047;-72
2021/09/01 09:58:36;;;;;;;6.05;4.72;;;22.50;99.90;;;;;;5072306;28;20144;-72
2021/09/01 10:01:05;;;;;;;6.90;5.93;;;22.10;99.90;;;;;;5073648;28;20424;-72
2021/09/01 10:03:33;;;;;;;6.57;4.80;;;22.50;99.90;;;;;;5073813;28;20101;-69
2021/09/01 10:06:01;;;;;;;8.02;6.82;;;22.40;99.90;;;;;;5086608;28;20052;-67
2021/09/01 10:08:29;;;;;;;8.32;6.70;;;22.30;99.90;;;;;;5088167;28;20044;-70
2021/09/01 10:10:59;;;;;;;13.88;7.53;;;22.00;99.90;;;;;;5090243;28;20369;-69
2021/09/01 10:13:27;;;;;;;11.25;7.97;;;21.70;99.90;;;;;;5072344;28;20048;-70
2021/09/01 10:15:58;;;;;;;8.40;5.63;;;22.00;99.90;;;;;;5083367;28;20044;-72
2021/09/01 10:18:26;;;;;;;7.45;4.82;;;22.30;99.90;;;;;;5087927;28;20094;-70
2021/09/01 10:20:52;;;;;;;8.52;6.18;;;22.50;99.90;;;;;;5072551;28;20493;-71
2021/09/01 10:23:36;;;;;;;9.77;5.65;;;22.60;99.90;;;;;;5092039;28;20051;-71
2021/09/01 10:26:21;;;;;;;7.30;5.10;;;23.70;99.90;;;;;;5092258;28;20403;-69
2021/09/01 10:28:48;;;;;;;7.45;6.22;;;24.50;99.90;;;;;;5091324;28;20044;-70
2021/09/01 10:31:26;;;;;;;6.88;5.15;;;24.00;99.90;;;;;;5089010;28;20093;-70
2021/09/01 10:33:54;;;;;;;6.45;5.50;;;23.80;99.90;;;;;;5091033;28;20044;-70
2021/09/01 10:36:40;;;;;;;7.45;5.80;;;23.40;99.90;;;;;;5092111;28;20044;-70
2021/09/01 10:39:35;;;;;;;8.57;5.25;;;22.80;99.90;;;;;;5080152;28;20052;-70
2021/09/01 10:42:34;;;;;;;10.55;7.72;;;22.80;99.90;;;;;;5080838;28;20048;-70
2021/09/01 10:45:01;;;;;;;7.00;5.00;;;22.60;99.90;;;;;;5071669;28;20131;-70
2021/09/01 10:47:28;;;;;;;7.25;5.50;;;22.40;99.90;;;;;;5071696;28;20048;-71
2021/09/01 10:50:00;;;;;;;7.30;5.10;;;22.20;99.90;;;;;;5070982;28;20098;-71
2021/09/01 10:52:56;;;;;;;10.57;6.30;;;22.10;99.90;;;;;;5085932;28;20109;-69
2021/09/01 10:55:22;;;;;;;8.05;5.70;;;22.00;99.90;;;;;;5091576;28;20075;-71
2021/09/01 10:58:15;;;;;;;8.25;5.65;;;21.80;99.90;;;;;;5090319;28;20044;-70
2021/09/01 11:00:42;;;;;;;10.23;7.47;;;21.60;99.90;;;;;;5090185;28;20048;-70
2021/09/01 11:03:09;;;;;;;9.77;6.07;;;21.60;99.90;;;;;;5091645;28;20052;-69
2021/09/01 11:05:35;;;;;;;7.43;5.55;;;21.50;99.90;;;;;;5080547;28;20182;-69
2021/09/01 11:08:02;;;;;;;9.85;6.18;;;21.40;99.90;;;;;;5071517;28;20048;-70
2021/09/01 11:10:29;;;;;;;7.43;5.60;;;21.40;99.90;;;;;;5072829;28;20074;-72
2021/09/01 11:13:00;;;;;;;11.57;8.38;;;21.20;99.90;;;;;;5091841;28;20095;-74
2021/09/01 11:15:29;;;;;;;9.52;7.18;;;21.10;99.90;;;;;;5092671;28;20048;-72
2021/09/01 11:18:05;;;;;;;10.70;7.95;;;20.90;99.90;;;;;;5091627;28;20048;-72
2021/09/01 11:20:32;;;;;;;10.27;6.05;;;21.00;99.90;;;;;;5089640;28;20126;-70
2021/09/01 11:23:01;;;;;;;9.10;6.15;;;20.90;99.90;;;;;;5071444;28;20500;-72
2021/09/01 11:25:28;;;;;;;8.73;5.55;;;21.20;99.90;;;;;;5082714;28;20431;-72
2021/09/01 11:27:57;;;;;;;6.13;5.00;;;21.60;99.90;;;;;;5078162;28;20045;-76
2021/09/01 11:30:30;;;;;;;10.73;6.00;;;21.50;99.90;;;;;;5074378;28;20404;-73
2021/09/01 11:32:59;;;;;;;8.20;5.15;;;21.80;99.90;;;;;;5086394;28;20225;-73
2021/09/01 11:35:29;;;;;;;6.30;4.93;;;21.70;99.90;;;;;;5095205;28;20147;-72
2021/09/01 11:37:56;;;;;;;34.38;19.67;;;21.70;99.90;;;;;;5076032;28;20127;-71
2021/09/01 11:40:30;;;;;;;10.32;6.50;;;21.80;99.90;;;;;;5079586;28;20105;-74
2021/09/01 11:42:58;;;;;;;6.75;5.18;;;21.70;99.90;;;;;;5094808;28;20052;-71
2021/09/01 11:45:25;;;;;;;9.90;6.78;;;21.60;99.90;;;;;;5080081;28;20041;-70
2021/09/01 11:47:52;;;;;;;7.50;6.15;;;22.10;99.90;;;;;;5075057;28;20071;-69
2021/09/01 11:50:20;;;;;;;8.15;6.85;;;22.40;99.90;;;;;;5093594;28;20508;-70
2021/09/01 11:52:53;;;;;;;7.03;5.03;;;22.60;99.90;;;;;;5084441;28;20044;-71
2021/09/01 11:55:22;;;;;;;7.55;5.57;;;22.60;99.90;;;;;;5074416;28;20158;-74
2021/09/01 11:57:49;;;;;;;8.70;5.28;;;22.80;99.90;;;;;;5083971;28;20044;-74
2021/09/01 12:00:16;;;;;;;5.95;5.20;;;22.70;99.90;;;;;;5093321;28;20044;-73
2021/09/01 12:02:44;;;;;;;5.40;4.90;;;22.80;99.90;;;;;;5094852;28;20070;-73
2021/09/01 12:05:11;;;;;;;6.00;4.50;;;23.10;99.90;;;;;;5082608;28;20049;-74
2021/09/01 12:07:40;;;;;;;6.32;4.57;;;23.70;99.90;;;;;;5075063;28;20238;-76
2021/09/01 12:10:08;;;;;;;8.13;5.28;;;23.90;99.90;;;;;;5091169;28;20161;-72
2021/09/01 12:12:37;;;;;;;8.25;5.65;;;23.70;99.90;;;;;;5094586;28;20048;-71
2021/09/01 12:15:10;;;;;;;7.18;4.97;;;23.60;99.90;;;;;;5090243;28;20041;-70
2021/09/01 12:17:36;;;;;;;9.70;5.95;;;23.70;99.90;;;;;;5074223;28;20053;-70
2021/09/01 12:20:04;;;;;;;14.50;8.82;;;23.60;99.90;;;;;;5088633;28;20097;-70
2021/09/01 12:22:34;;;;;;;9.63;6.28;;;23.10;99.90;;;;;;5094741;28;20051;-69
2021/09/01 12:25:05;;;;;;;7.32;5.97;;;22.80;99.90;;;;;;5094486;28;20071;-70
2021/09/01 12:27:31;;;;;;;8.10;5.97;;;22.90;99.90;;;;;;5094368;28;20048;-70
2021/09/01 12:29:58;;;;;;;7.75;5.72;;;22.60;99.90;;;;;;5096302;28;20044;-70
2021/09/01 12:32:25;;;;;;;11.52;7.78;;;24.10;99.90;;;;;;5094182;28;20101;-70
2021/09/01 12:34:55;;;;;;;6.88;4.78;;;24.70;99.90;;;;;;5094096;28;20133;-71
2021/09/01 12:37:24;;;;;;;7.20;5.85;;;24.60;99.90;;;;;;5083851;28;20127;-70
2021/09/01 12:39:52;;;;;;;6.03;4.95;;;24.50;99.90;;;;;;5073402;28;20049;-70
2021/09/01 12:42:29;;;;;;;9.63;5.60;;;23.60;99.90;;;;;;5073564;28;20056;-70
2021/09/01 12:44:58;;;;;;;9.27;6.80;;;23.80;99.90;;;;;;5073735;28;20041;-70
2021/09/01 12:47:26;;;;;;;8.32;5.32;;;24.30;99.90;;;;;;5091756;28;20101;-70